createdAt,value
2023-11-07T00:00:53.066Z,2.92
2023-11-07T00:03:22.324Z,3.10
2023-11-07T00:05:50.165Z,3.77
2023-11-07T00:08:18.102Z,3.58
2023-11-07T00:10:45.959Z,3.63
2023-11-07T00:13:14.177Z,3.45
2023-11-07T00:15:43.074Z,3.17
2023-11-07T00:18:11.025Z,3.30
2023-11-07T00:20:40.491Z,3.45
2023-11-07T00:23:08.361Z,2.83
2023-11-07T00:25:36.178Z,2.70
2023-11-07T00:28:04.438Z,2.22
2023-11-07T00:30:33.684Z,2.53
2023-11-07T00:33:01.573Z,2.88
2023-11-07T00:35:29.420Z,2.33
2023-11-07T00:38:00.151Z,2.20
2023-11-07T00:40:28.055Z,2.55
2023-11-07T00:42:55.891Z,2.63
2023-11-07T00:45:25.013Z,2.50
2023-11-07T00:47:52.892Z,2.55
2023-11-07T00:50:21.457Z,3.15
2023-11-07T00:52:49.382Z,2.28
2023-11-07T00:55:18.669Z,2.47
2023-11-07T00:57:46.505Z,2.33
2023-11-07T01:00:15.937Z,2.63
2023-11-07T01:02:45.862Z,2.30
2023-11-07T01:05:14.567Z,2.80
2023-11-07T01:07:42.508Z,3.07
2023-11-07T01:10:10.893Z,2.35
2023-11-07T01:12:40.272Z,2.85
2023-11-07T01:15:09.023Z,2.70
2023-11-07T01:17:37.776Z,2.17
2023-11-07T01:20:07.479Z,2.70
2023-11-07T01:22:35.430Z,2.95
2023-11-07T01:25:04.471Z,2.60
2023-11-07T01:27:33.166Z,2.47
2023-11-07T01:30:02.338Z,2.60
2023-11-07T01:32:30.416Z,2.60
2023-11-07T01:34:58.236Z,2.58
2023-11-07T01:37:26.061Z,2.13
2023-11-07T01:39:53.833Z,2.55
2023-11-07T01:42:21.931Z,2.45
2023-11-07T01:44:51.753Z,3.17
2023-11-07T01:47:24.142Z,3.15
2023-11-07T01:49:52.292Z,3.92
2023-11-07T01:52:20.832Z,3.63
2023-11-07T01:54:52.610Z,4.07
2023-11-07T01:57:21.630Z,3.10
2023-11-07T01:59:50.501Z,2.92
2023-11-07T02:02:19.852Z,3.10
2023-11-07T02:04:49.378Z,3.25
2023-11-07T02:07:18.146Z,2.70
2023-11-07T02:09:48.326Z,2.50
2023-11-07T02:12:16.243Z,2.30
2023-11-07T02:14:45.195Z,3.13
2023-11-07T02:17:13.104Z,2.85
2023-11-07T02:19:40.908Z,3.40
2023-11-07T02:22:12.191Z,3.20
2023-11-07T02:24:41.431Z,3.35
2023-11-07T02:27:09.652Z,3.92
2023-11-07T02:29:38.338Z,3.55
2023-11-07T02:32:06.780Z,3.63
2023-11-07T02:34:34.594Z,3.97
2023-11-07T02:37:03.234Z,3.80
2023-11-07T02:39:31.245Z,4.38
2023-11-07T02:42:00.827Z,4.22
2023-11-07T02:44:29.020Z,4.30
2023-11-07T02:46:56.840Z,4.53
2023-11-07T02:49:24.685Z,4.85
2023-11-07T02:51:52.641Z,4.40
2023-11-07T02:54:20.507Z,4.15
2023-11-07T02:56:48.438Z,4.18
2023-11-07T02:59:17.581Z,5.23
2023-11-07T03:01:45.431Z,4.55
2023-11-07T03:04:14.174Z,4.07
2023-11-07T03:06:42.147Z,4.13
2023-11-07T03:09:11.181Z,3.80
2023-11-07T03:11:39.038Z,3.93
2023-11-07T03:14:07.628Z,4.70
2023-11-07T03:16:38.330Z,3.40
2023-11-07T03:19:09.314Z,3.67
2023-11-07T03:21:37.545Z,3.80
2023-11-07T03:24:05.883Z,4.13
2023-11-07T03:26:33.692Z,3.60
2023-11-07T03:29:01.625Z,3.25
2023-11-07T03:31:29.549Z,3.78
2023-11-07T03:33:58.818Z,4.10
2023-11-07T03:36:26.693Z,3.00
2023-11-07T03:38:54.552Z,3.60
2023-11-07T03:41:23.506Z,3.70
2023-11-07T03:43:51.310Z,3.20
2023-11-07T03:46:19.160Z,3.30
2023-11-07T03:48:46.991Z,3.20
2023-11-07T03:51:16.525Z,2.60
2023-11-07T03:53:44.414Z,2.22
2023-11-07T03:56:12.270Z,2.15
2023-11-07T03:58:40.046Z,2.22
2023-11-07T04:01:08.099Z,1.90
2023-11-07T04:03:36.008Z,1.88
2023-11-07T04:06:04.175Z,3.20
2023-11-07T04:08:33.509Z,2.35
2023-11-07T04:11:01.379Z,2.05
2023-11-07T04:13:31.009Z,1.93
2023-11-07T04:15:59.157Z,1.63
2023-11-07T04:18:27.219Z,1.70
2023-11-07T04:20:56.386Z,1.85
2023-11-07T04:23:24.456Z,1.67
2023-11-07T04:25:53.571Z,1.50
2023-11-07T04:28:21.383Z,1.58
2023-11-07T04:30:49.323Z,2.33
2023-11-07T04:33:17.332Z,1.90
2023-11-07T04:35:45.530Z,2.58
2023-11-07T04:38:14.456Z,2.77
2023-11-07T04:40:42.579Z,2.25
2023-11-07T04:43:11.843Z,2.00
2023-11-07T04:45:39.803Z,1.88
2023-11-07T04:48:08.427Z,1.60
2023-11-07T04:50:37.548Z,1.53
2023-11-07T04:53:06.163Z,2.53
2023-11-07T04:55:33.978Z,2.75
2023-11-07T04:58:02.299Z,2.33
2023-11-07T05:00:31.551Z,2.17
2023-11-07T05:02:59.565Z,2.07
2023-11-07T05:05:27.571Z,1.67
2023-11-07T05:07:55.310Z,1.67
2023-11-07T05:10:23.170Z,1.50
2023-11-07T05:12:50.929Z,1.58
2023-11-07T05:15:19.140Z,1.30
2023-11-07T05:17:49.245Z,1.08
2023-11-07T05:20:17.396Z,1.15
2023-11-07T05:22:45.164Z,0.90
2023-11-07T05:25:13.052Z,1.00
2023-11-07T05:27:41.282Z,0.90
2023-11-07T05:30:10.258Z,1.00
2023-11-07T05:32:38.348Z,1.10
2023-11-07T05:35:10.044Z,2.10
2023-11-07T05:37:38.288Z,1.90
2023-11-07T05:40:10.301Z,1.77
2023-11-07T05:42:38.076Z,2.13
2023-11-07T05:45:08.973Z,2.45
2023-11-07T05:47:38.791Z,1.88
2023-11-07T05:50:08.973Z,1.48
2023-11-07T05:52:37.131Z,1.53
2023-11-07T05:55:07.603Z,1.60
2023-11-07T05:57:36.975Z,1.30
2023-11-07T06:00:08.953Z,0.90
2023-11-07T06:02:40.074Z,1.25
2023-11-07T06:05:10.752Z,1.00
2023-11-07T06:07:38.817Z,0.90
2023-11-07T06:10:08.648Z,1.27
2023-11-07T06:12:36.556Z,1.10
2023-11-07T06:15:04.952Z,1.27
2023-11-07T06:17:33.798Z,2.47
2023-11-07T06:20:01.715Z,2.20
2023-11-07T06:22:30.892Z,1.77
2023-11-07T06:24:58.821Z,1.70
2023-11-07T06:27:27.404Z,1.80
2023-11-07T06:29:55.460Z,2.30
2023-11-07T06:32:23.299Z,1.60
2023-11-07T06:34:51.138Z,1.80
2023-11-07T06:37:19.120Z,1.88
2023-11-07T06:39:48.308Z,1.83
2023-11-07T06:42:18.593Z,1.80
2023-11-07T06:44:46.587Z,1.52
2023-11-07T06:47:14.474Z,1.58
2023-11-07T06:49:42.326Z,1.75
2023-11-07T06:52:10.123Z,1.40
2023-11-07T06:54:37.908Z,1.40
2023-11-07T06:57:09.486Z,1.27
2023-11-07T06:59:37.473Z,1.30
2023-11-07T07:02:14.748Z,1.40
2023-11-07T07:04:42.722Z,1.25
2023-11-07T07:07:12.463Z,1.07
2023-11-07T07:09:43.756Z,1.63
2023-11-07T07:12:14.795Z,1.33
2023-11-07T07:14:44.880Z,0.90
2023-11-07T07:17:13.444Z,1.27
2023-11-07T07:19:42.911Z,1.10
2023-11-07T07:22:10.733Z,0.90
2023-11-07T07:24:42.965Z,0.90
2023-11-07T07:27:12.935Z,0.90
2023-11-07T07:29:42.558Z,1.20
2023-11-07T07:32:13.008Z,0.80
2023-11-07T07:34:43.949Z,1.08
2023-11-07T07:37:12.109Z,0.80
2023-11-07T07:39:40.490Z,0.90
2023-11-07T07:42:11.208Z,0.80
2023-11-07T07:44:39.624Z,1.10
2023-11-07T07:47:09.695Z,1.00
2023-11-07T07:49:38.142Z,1.00
2023-11-07T07:52:10.064Z,1.08
2023-11-07T07:55:00.387Z,0.90
2023-11-07T07:57:27.893Z,1.13
2023-11-07T07:59:57.323Z,1.17
2023-11-07T08:02:26.554Z,1.42
2023-11-07T08:04:57.687Z,1.35
2023-11-07T08:07:25.568Z,1.35
2023-11-07T08:09:53.745Z,1.30
2023-11-07T08:12:22.354Z,1.10
2023-11-07T08:14:50.201Z,1.23
2023-11-07T08:17:18.090Z,1.05
2023-11-07T08:19:47.494Z,1.10
2023-11-07T08:22:15.680Z,1.60
2023-11-07T08:24:43.674Z,1.40
2023-11-07T08:27:12.051Z,1.20
2023-11-07T08:29:39.921Z,1.00
2023-11-07T08:32:08.639Z,1.20
2023-11-07T08:34:37.724Z,1.10
2023-11-07T08:37:11.420Z,1.15
2023-11-07T08:39:42.101Z,1.13
2023-11-07T08:42:11.711Z,1.25
2023-11-07T08:44:40.054Z,1.20
2023-11-07T08:47:08.628Z,0.87
2023-11-07T08:49:38.162Z,1.05
2023-11-07T08:52:07.696Z,1.13
2023-11-07T08:54:39.032Z,0.90
2023-11-07T08:57:07.045Z,0.88
2023-11-07T08:59:37.591Z,1.23
2023-11-07T09:02:05.872Z,1.00
2023-11-07T09:04:34.006Z,1.00
2023-11-07T09:07:02.342Z,1.10
2023-11-07T09:09:31.645Z,1.10
2023-11-07T09:12:01.898Z,1.10
2023-11-07T09:14:32.446Z,1.20
2023-11-07T09:17:00.396Z,1.45
2023-11-07T09:19:30.478Z,1.40
2023-11-07T09:21:58.456Z,1.38
2023-11-07T09:24:26.588Z,1.10
2023-11-07T09:26:57.897Z,1.35
2023-11-07T09:29:25.779Z,1.52
2023-11-07T09:32:00.855Z,1.13
2023-11-07T09:34:29.048Z,1.20
2023-11-07T09:37:00.864Z,1.10
2023-11-07T09:39:31.948Z,1.25
2023-11-07T09:42:02.470Z,1.38
2023-11-07T09:44:30.443Z,1.58
2023-11-07T09:47:00.090Z,1.73
2023-11-07T09:49:28.601Z,1.53
2023-11-07T09:52:00.834Z,1.70
2023-11-07T09:54:31.180Z,1.85
2023-11-07T09:57:04.203Z,1.60
2023-11-07T09:59:36.863Z,1.60
2023-11-07T10:02:05.280Z,1.70
2023-11-07T10:04:34.348Z,1.70
2023-11-07T10:07:02.653Z,2.40
2023-11-07T10:09:32.606Z,2.10
2023-11-07T10:12:01.799Z,1.90
2023-11-07T10:14:35.406Z,1.70
2023-11-07T10:17:05.327Z,1.80
2023-11-07T10:19:33.658Z,1.92
2023-11-07T10:22:07.538Z,1.80
2023-11-07T10:24:44.672Z,2.15
2023-11-07T10:27:12.908Z,1.90
2023-11-07T10:29:59.252Z,2.33
2023-11-07T10:32:28.725Z,2.60
2023-11-07T10:35:04.348Z,3.05
2023-11-07T10:37:37.457Z,2.78
2023-11-07T10:40:06.662Z,3.10
2023-11-07T10:42:35.777Z,3.17
2023-11-07T10:45:11.327Z,2.83
2023-11-07T10:47:41.192Z,2.97
2023-11-07T10:50:13.665Z,3.20
2023-11-07T10:52:41.986Z,3.00
2023-11-07T10:55:10.864Z,4.00
2023-11-07T10:57:41.169Z,3.00
2023-11-07T11:00:14.893Z,2.50
2023-11-07T11:03:57.181Z,2.38
2023-11-07T11:06:26.341Z,2.50
2023-11-07T11:08:58.160Z,2.30
2023-11-07T11:11:42.592Z,2.10
2023-11-07T11:14:14.025Z,1.60
2023-11-07T11:16:49.453Z,1.92
2023-11-07T11:19:29.707Z,1.40
2023-11-07T11:22:11.399Z,1.77
2023-11-07T11:25:04.551Z,1.60
2023-11-07T11:27:41.421Z,1.35
2023-11-07T11:30:11.123Z,1.27
2023-11-07T11:32:45.437Z,1.50
2023-11-07T11:35:34.698Z,1.40
2023-11-07T11:38:10.436Z,1.10
2023-11-07T11:40:58.421Z,0.98
2023-11-07T11:43:31.110Z,1.50
2023-11-07T11:46:39.057Z,0.80
2023-11-07T11:49:17.856Z,1.38
2023-11-07T11:51:49.114Z,1.05
2023-11-07T11:54:39.105Z,1.67
2023-11-07T11:57:09.254Z,1.48
2023-11-07T11:59:56.558Z,1.23
2023-11-07T12:02:37.881Z,1.20
2023-11-07T12:05:19.059Z,0.90
2023-11-07T12:07:48.394Z,1.52
2023-11-07T12:10:18.317Z,1.42
2023-11-07T12:12:57.508Z,1.50
2023-11-07T12:15:28.961Z,1.30
2023-11-07T12:17:58.343Z,1.13
2023-11-07T12:20:34.673Z,1.50
2023-11-07T12:23:02.556Z,1.77
2023-11-07T12:25:34.025Z,1.47
2023-11-07T12:28:04.789Z,0.88
2023-11-07T12:30:36.856Z,0.90
2023-11-07T12:33:07.664Z,0.77
2023-11-07T12:35:38.688Z,1.13
2023-11-07T12:38:10.723Z,1.00
2023-11-07T12:40:40.848Z,1.10
2023-11-07T12:43:09.876Z,1.08
2023-11-07T12:45:48.561Z,0.70
2023-11-07T12:48:28.238Z,0.90
2023-11-07T12:50:57.667Z,1.00
2023-11-07T12:53:26.945Z,1.20
2023-11-07T12:55:55.691Z,1.00
2023-11-07T12:58:28.469Z,1.08
2023-11-07T13:00:58.698Z,1.27
2023-11-07T13:03:31.967Z,1.00
2023-11-07T13:06:03.650Z,0.85
2023-11-07T13:08:34.079Z,1.05
2023-11-07T13:11:13.702Z,0.80
2023-11-07T13:13:43.022Z,0.90
2023-11-07T13:16:11.166Z,1.00
2023-11-07T13:18:40.000Z,0.88
2023-11-07T13:21:11.098Z,0.88
2023-11-07T13:23:39.652Z,1.25
2023-11-07T13:26:09.636Z,1.08
2023-11-07T13:28:38.915Z,0.90
2023-11-07T13:31:06.974Z,1.25
2023-11-07T13:33:35.280Z,1.25
2023-11-07T13:36:05.128Z,1.10
2023-11-07T13:38:34.461Z,1.02
2023-11-07T13:41:02.528Z,1.37
2023-11-07T13:43:30.554Z,1.30
2023-11-07T13:45:59.907Z,1.20
2023-11-07T13:48:28.020Z,0.90
2023-11-07T13:50:56.093Z,1.40
2023-11-07T13:53:24.118Z,1.53
2023-11-07T13:55:54.174Z,1.10
2023-11-07T13:58:22.172Z,1.45
2023-11-07T14:00:50.156Z,1.00
2023-11-07T14:03:18.232Z,0.73
2023-11-07T14:05:46.781Z,0.97
2023-11-07T14:08:15.900Z,1.20
2023-11-07T14:10:45.628Z,1.05
2023-11-07T14:13:15.077Z,1.00
2023-11-07T14:15:43.285Z,1.30
2023-11-07T14:18:16.912Z,1.00
2023-11-07T14:21:01.184Z,1.02
2023-11-07T14:23:29.602Z,1.00
2023-11-07T14:25:59.400Z,1.27
2023-11-07T14:28:37.081Z,1.85
2023-11-07T14:31:12.956Z,1.10
2023-11-07T14:33:44.128Z,1.27
2023-11-07T14:36:14.115Z,0.90
2023-11-07T14:38:43.588Z,1.20
2023-11-07T14:41:11.495Z,1.30
2023-11-07T14:43:44.037Z,1.00
2023-11-07T14:46:12.026Z,0.90
2023-11-07T14:48:43.048Z,1.00
2023-11-07T14:51:11.019Z,1.02
2023-11-07T14:53:43.283Z,1.40
2023-11-07T14:56:19.350Z,0.73
2023-11-07T14:58:57.078Z,1.52
2023-11-07T15:01:29.752Z,1.27
2023-11-07T15:03:57.777Z,1.05
2023-11-07T15:06:28.807Z,1.42
2023-11-07T15:09:01.742Z,1.37
2023-11-07T15:11:34.737Z,1.08
2023-11-07T15:14:11.113Z,1.15
2023-11-07T15:16:43.949Z,0.77
2023-11-07T15:19:15.476Z,1.00
2023-11-07T15:21:43.324Z,1.37
2023-11-07T15:24:11.325Z,1.15
2023-11-07T15:26:39.351Z,1.00
2023-11-07T15:29:08.488Z,0.90
2023-11-07T15:31:36.412Z,1.20
2023-11-07T15:34:04.554Z,0.93
2023-11-07T15:36:32.783Z,1.05
2023-11-07T15:39:00.717Z,1.70
2023-11-07T15:41:28.657Z,1.10
2023-11-07T15:43:57.420Z,1.63
2023-11-07T15:46:27.844Z,1.07
2023-11-07T15:48:55.972Z,1.50
2023-11-07T15:51:25.707Z,1.65
2023-11-07T15:53:55.192Z,1.25
2023-11-07T15:56:23.050Z,1.30
2023-11-07T15:58:50.935Z,1.63
2023-11-07T16:01:24.297Z,1.05
2023-11-07T16:03:54.400Z,1.17
2023-11-07T16:06:23.397Z,1.08
2023-11-07T16:08:51.386Z,1.38
2023-11-07T16:11:19.237Z,1.30
2023-11-07T16:13:49.859Z,1.10
2023-11-07T16:16:17.826Z,1.00
2023-11-07T16:18:48.439Z,1.20
2023-11-07T16:21:34.259Z,1.13
2023-11-07T16:24:05.653Z,1.10
2023-11-07T16:26:40.127Z,2.08
2023-11-07T16:29:08.176Z,1.92
2023-11-07T16:31:36.050Z,1.50
2023-11-07T16:34:05.734Z,1.20
2023-11-07T16:36:35.025Z,1.50
2023-11-07T16:39:03.373Z,1.98
2023-11-07T16:41:32.300Z,1.40
2023-11-07T16:44:00.370Z,1.52
2023-11-07T16:46:28.244Z,1.35
2023-11-07T16:48:56.051Z,1.40
2023-11-07T16:51:24.041Z,1.50
2023-11-07T16:53:54.556Z,1.50
2023-11-07T16:56:22.544Z,1.50
2023-11-07T16:58:50.340Z,1.50
2023-11-07T17:01:18.185Z,1.67
2023-11-07T17:03:46.323Z,1.20
2023-11-07T17:06:14.801Z,1.63
2023-11-07T17:08:43.025Z,1.50
2023-11-07T17:11:14.830Z,1.40
2023-11-07T17:13:43.003Z,1.80
2023-11-07T17:16:10.853Z,1.40
2023-11-07T17:18:43.021Z,1.05
2023-11-07T17:21:12.491Z,1.23
2023-11-07T17:23:41.241Z,1.20
2023-11-07T17:26:14.267Z,1.20
2023-11-07T17:28:42.067Z,1.52
2023-11-07T17:31:11.251Z,1.23
2023-11-07T17:33:41.454Z,1.13
2023-11-07T17:36:13.185Z,1.38
2023-11-07T17:38:41.179Z,1.27
2023-11-07T17:41:15.243Z,1.27
2023-11-07T17:43:48.159Z,1.20
2023-11-07T17:46:22.847Z,1.45
2023-11-07T17:48:51.672Z,1.33
2023-11-07T17:51:23.473Z,1.20
2023-11-07T17:53:53.692Z,1.80
2023-11-07T17:56:25.961Z,1.65
2023-11-07T17:58:56.454Z,1.23
2023-11-07T18:01:31.483Z,1.45
2023-11-07T18:04:00.450Z,1.57
2023-11-07T18:06:42.737Z,1.73
2023-11-07T18:09:19.852Z,1.60
2023-11-07T18:11:49.603Z,1.10
2023-11-07T18:14:18.076Z,1.40
2023-11-07T18:16:46.380Z,1.07
2023-11-07T18:19:17.552Z,1.73
2023-11-07T18:21:47.707Z,1.23
2023-11-07T18:24:15.481Z,1.38
2023-11-07T18:26:57.914Z,1.55
2023-11-07T18:29:32.584Z,1.20
2023-11-07T18:32:10.943Z,1.10
2023-11-07T18:34:39.834Z,1.10
2023-11-07T18:37:10.374Z,1.30
2023-11-07T18:39:40.543Z,1.20
2023-11-07T18:42:10.343Z,1.23
2023-11-07T18:44:41.401Z,1.00
2023-11-07T18:47:09.581Z,0.90
2023-11-07T18:49:37.709Z,0.60
2023-11-07T18:52:06.134Z,1.10
2023-11-07T18:54:34.667Z,1.00
2023-11-07T18:57:02.823Z,0.75
2023-11-07T18:59:37.496Z,1.17
2023-11-07T19:02:07.548Z,0.80
2023-11-07T19:04:37.443Z,1.23
2023-11-07T19:07:08.647Z,1.40
2023-11-07T19:09:39.205Z,1.30
2023-11-07T19:12:08.065Z,1.83
2023-11-07T19:14:40.575Z,2.17
2023-11-07T19:17:11.110Z,1.40
2023-11-07T19:19:39.569Z,1.50
2023-11-07T19:22:07.345Z,1.42
2023-11-07T19:24:35.300Z,1.48
2023-11-07T19:27:04.214Z,1.33
2023-11-07T19:29:32.464Z,1.10
2023-11-07T19:32:03.200Z,1.10
2023-11-07T19:34:31.442Z,0.90
2023-11-07T19:37:01.816Z,1.02
2023-11-07T19:39:30.533Z,1.58
2023-11-07T19:42:02.963Z,1.90
2023-11-07T19:44:31.346Z,1.20
2023-11-07T19:46:59.192Z,1.50
2023-11-07T19:49:29.028Z,0.98
2023-11-07T19:51:59.438Z,2.60
2023-11-07T19:54:27.947Z,2.25
2023-11-07T19:56:56.270Z,1.83
2023-11-07T19:59:24.140Z,1.80
2023-11-07T20:01:51.986Z,1.70
2023-11-07T20:04:20.047Z,2.80
2023-11-07T20:06:50.482Z,1.55
2023-11-07T20:09:19.112Z,1.60
2023-11-07T20:11:50.097Z,1.48
2023-11-07T20:14:19.224Z,1.50
2023-11-07T20:16:50.474Z,1.58
2023-11-07T20:19:20.880Z,1.10
2023-11-07T20:21:50.441Z,1.43
2023-11-07T20:24:20.510Z,1.30
2023-11-07T20:26:48.752Z,1.25
2023-11-07T20:29:18.995Z,1.65
2023-11-07T20:31:53.898Z,1.13
2023-11-07T20:34:22.152Z,1.40
2023-11-07T20:36:51.786Z,1.20
2023-11-07T20:39:19.674Z,1.30
2023-11-07T20:41:47.628Z,1.60
2023-11-07T20:44:15.604Z,1.33
2023-11-07T20:46:43.590Z,2.00
2023-11-07T20:49:13.298Z,1.60
2023-11-07T20:51:42.152Z,1.88
2023-11-07T20:54:16.624Z,2.58
2023-11-07T20:56:44.771Z,1.60
2023-11-07T20:59:14.978Z,1.57
2023-11-07T21:01:47.906Z,2.00
2023-11-07T21:04:15.880Z,1.75
2023-11-07T21:06:45.834Z,1.50
2023-11-07T21:09:18.012Z,1.50
2023-11-07T21:11:47.554Z,2.10
2023-11-07T21:14:15.378Z,1.92
2023-11-07T21:16:43.485Z,2.13
2023-11-07T21:19:14.315Z,2.15
2023-11-07T21:21:42.324Z,1.58
2023-11-07T21:24:10.940Z,2.57
2023-11-07T21:26:40.153Z,1.45
2023-11-07T21:29:08.267Z,1.75
2023-11-07T21:31:36.193Z,1.83
2023-11-07T21:34:05.709Z,2.17
2023-11-07T21:36:33.637Z,1.80
2023-11-07T21:39:01.918Z,1.73
2023-11-07T21:41:29.707Z,1.85
2023-11-07T21:43:59.066Z,1.92
2023-11-07T21:46:27.438Z,1.98
2023-11-07T21:48:55.349Z,1.30
2023-11-07T21:51:23.302Z,1.63
2023-11-07T21:53:51.183Z,1.77
2023-11-07T21:56:23.043Z,1.42
2023-11-07T21:58:50.936Z,1.73
2023-11-07T22:01:20.596Z,2.30
2023-11-07T22:03:48.430Z,1.45
2023-11-07T22:06:16.360Z,1.30
2023-11-07T22:08:44.205Z,1.27
2023-11-07T22:11:12.561Z,1.65
2023-11-07T22:13:40.564Z,1.47
2023-11-07T22:16:08.592Z,1.30
2023-11-07T22:18:37.857Z,1.30
2023-11-07T22:21:06.514Z,2.15
2023-11-07T22:23:34.862Z,1.60
2023-11-07T22:26:02.660Z,1.20
2023-11-07T22:28:30.556Z,1.50
2023-11-07T22:30:58.397Z,1.05
2023-11-07T22:33:26.309Z,1.30
2023-11-07T22:35:55.641Z,1.30
2023-11-07T22:38:23.528Z,1.67
2023-11-07T22:40:51.849Z,1.65
2023-11-07T22:43:20.178Z,1.13
2023-11-07T22:45:48.358Z,1.58
2023-11-07T22:48:16.289Z,1.42
2023-11-07T22:50:44.202Z,1.20
2023-11-07T22:53:14.909Z,0.98
2023-11-07T22:55:42.938Z,1.73
2023-11-07T22:58:11.111Z,1.25
2023-11-07T23:00:41.636Z,1.30
2023-11-07T23:03:12.459Z,1.30
2023-11-07T23:05:41.278Z,1.10
2023-11-07T23:08:10.134Z,1.20
2023-11-07T23:10:39.937Z,1.00
2023-11-07T23:13:08.504Z,1.25
2023-11-07T23:15:38.680Z,1.83
2023-11-07T23:18:07.186Z,2.25
2023-11-07T23:20:36.424Z,1.25
2023-11-07T23:23:04.641Z,1.17
2023-11-07T23:25:32.491Z,1.58
2023-11-07T23:28:02.671Z,1.83
2023-11-07T23:30:30.742Z,2.28
2023-11-07T23:33:01.406Z,1.60
2023-11-07T23:35:29.550Z,1.50
2023-11-07T23:37:57.789Z,1.40
2023-11-07T23:40:26.036Z,1.30
2023-11-07T23:42:53.832Z,1.45
2023-11-07T23:45:23.354Z,1.50
2023-11-07T23:47:51.302Z,1.60
2023-11-07T23:50:19.320Z,1.73
2023-11-07T23:52:47.164Z,1.17
2023-11-07T23:55:15.125Z,1.70
2023-11-07T23:57:43.467Z,1.58
